createdAt,value
2019-02-28T00:00:41.468Z,1009.54
2019-02-28T00:01:43.178Z,1009.54
2019-02-28T00:02:41.602Z,1009.52
2019-02-28T00:03:40.591Z,1009.54
2019-02-28T00:04:40.583Z,1009.57
2019-02-28T00:05:40.611Z,1009.54
2019-02-28T00:06:43.989Z,1009.56
2019-02-28T00:07:40.547Z,1009.53
2019-02-28T00:08:40.538Z,1009.55
2019-02-28T00:09:40.524Z,1009.55
2019-02-28T00:10:40.527Z,1009.55
2019-02-28T00:11:40.513Z,1009.51
2019-02-28T00:12:40.496Z,1009.50
2019-02-28T00:13:40.528Z,1009.46
2019-02-28T00:14:40.575Z,1009.45
2019-02-28T00:15:40.642Z,1009.45
2019-02-28T00:16:40.473Z,1009.43
2019-02-28T00:17:43.548Z,1009.45
2019-02-28T00:18:40.570Z,1009.46
2019-02-28T00:19:40.667Z,1009.46
2019-02-28T00:20:40.402Z,1009.47
2019-02-28T00:21:41.309Z,1009.46
2019-02-28T00:22:40.381Z,1009.41
2019-02-28T00:23:40.386Z,1009.39
2019-02-28T00:24:40.363Z,1009.37
2019-02-28T00:25:40.351Z,1009.37
2019-02-28T00:26:46.250Z,1009.35
2019-02-28T00:27:41.351Z,1009.32
2019-02-28T00:28:40.325Z,1009.30
2019-02-28T00:29:40.302Z,1009.33
2019-02-28T00:30:40.754Z,1009.28
2019-02-28T00:31:40.301Z,1009.29
2019-02-28T00:32:40.280Z,1009.28
2019-02-28T00:33:40.256Z,1009.28
2019-02-28T00:34:40.247Z,1009.25
2019-02-28T00:35:40.237Z,1009.25
2019-02-28T00:36:40.249Z,1009.26
2019-02-28T00:37:40.213Z,1009.24
2019-02-28T00:38:40.211Z,1009.21
2019-02-28T00:39:40.224Z,1009.25
2019-02-28T00:40:40.190Z,1009.26
2019-02-28T00:41:44.314Z,1009.22
2019-02-28T00:42:40.165Z,1009.20
2019-02-28T00:43:40.151Z,1009.22
2019-02-28T00:44:40.149Z,1009.24
2019-02-28T00:45:40.130Z,1009.20
2019-02-28T00:46:44.000Z,1009.18
2019-02-28T00:47:40.107Z,1009.17
2019-02-28T00:48:40.090Z,1009.17
2019-02-28T00:49:40.094Z,1009.19
2019-02-28T00:50:40.078Z,1009.14
2019-02-28T00:51:40.068Z,1009.12
2019-02-28T00:52:40.064Z,1009.13
2019-02-28T00:53:40.036Z,1009.10
2019-02-28T00:54:43.377Z,1009.11
2019-02-28T00:55:40.036Z,1009.07
2019-02-28T00:56:40.018Z,1009.09
2019-02-28T00:57:40.019Z,1009.08
2019-02-28T00:58:39.982Z,1009.06
2019-02-28T00:59:40.014Z,1009.03
2019-02-28T01:00:40.073Z,1009.00
2019-02-28T01:01:39.959Z,1008.99
2019-02-28T01:02:39.940Z,1008.96
2019-02-28T01:03:39.929Z,1008.92
2019-02-28T01:04:39.916Z,1008.99
2019-02-28T01:05:39.902Z,1008.98
2019-02-28T01:06:41.801Z,1008.98
2019-02-28T01:07:39.879Z,1008.95
2019-02-28T01:08:39.869Z,1008.96
2019-02-28T01:09:39.879Z,1008.97
2019-02-28T01:10:40.053Z,1008.91
2019-02-28T01:11:39.847Z,1008.89
2019-02-28T01:12:39.824Z,1008.96
2019-02-28T01:13:39.814Z,1008.94
2019-02-28T01:14:39.802Z,1008.96
2019-02-28T01:15:44.493Z,1008.94
2019-02-28T01:16:41.433Z,1008.90
2019-02-28T01:17:39.768Z,1008.91
2019-02-28T01:18:39.760Z,1008.90
2019-02-28T01:19:41.306Z,1008.92
2019-02-28T01:20:39.741Z,1008.91
2019-02-28T01:21:39.737Z,1008.86
2019-02-28T01:22:39.742Z,1008.86
2019-02-28T01:23:39.702Z,1008.88
2019-02-28T01:24:39.691Z,1008.83
2019-02-28T01:25:40.166Z,1008.84
2019-02-28T01:26:39.707Z,1008.77
2019-02-28T01:27:39.660Z,1008.82
2019-02-28T01:28:39.644Z,1008.77
2019-02-28T01:29:39.644Z,1008.73
2019-02-28T01:30:40.650Z,1008.72
2019-02-28T01:31:42.594Z,1008.66
2019-02-28T01:32:39.621Z,1008.65
2019-02-28T01:33:39.592Z,1008.66
2019-02-28T01:34:39.577Z,1008.63
2019-02-28T01:35:40.799Z,1008.59
2019-02-28T01:36:39.599Z,1008.57
2019-02-28T01:37:39.547Z,1008.54
2019-02-28T01:38:39.534Z,1008.53
2019-02-28T01:39:39.522Z,1008.51
2019-02-28T01:40:39.513Z,1008.49
2019-02-28T01:41:42.275Z,1008.49
2019-02-28T01:42:40.504Z,1008.44
2019-02-28T01:43:39.488Z,1008.49
2019-02-28T01:44:39.474Z,1008.43
2019-02-28T01:45:43.439Z,1008.47
2019-02-28T01:46:39.445Z,1008.48
2019-02-28T01:47:39.450Z,1008.45
2019-02-28T01:48:39.424Z,1008.43
2019-02-28T01:49:39.415Z,1008.43
2019-02-28T01:50:39.406Z,1008.46
2019-02-28T01:51:39.388Z,1008.46
2019-02-28T01:52:44.485Z,1008.38
2019-02-28T01:53:40.387Z,1008.40
2019-02-28T01:54:39.360Z,1008.41
2019-02-28T01:55:39.391Z,1008.42
2019-02-28T01:56:39.392Z,1008.37
2019-02-28T01:57:42.886Z,1008.36
2019-02-28T01:58:39.369Z,1008.36
2019-02-28T01:59:39.301Z,1008.39
2019-02-28T02:00:39.288Z,1008.37
2019-02-28T02:01:39.289Z,1008.40
2019-02-28T02:02:39.296Z,1008.40
2019-02-28T02:03:40.695Z,1008.40
2019-02-28T02:04:39.243Z,1008.40
2019-02-28T02:05:39.237Z,1008.40
2019-02-28T02:06:39.222Z,1008.42
2019-02-28T02:07:39.224Z,1008.43
2019-02-28T02:08:39.273Z,1008.44
2019-02-28T02:09:39.187Z,1008.47
2019-02-28T02:10:39.180Z,1008.42
2019-02-28T02:11:39.174Z,1008.42
2019-02-28T02:12:39.168Z,1008.38
2019-02-28T02:13:39.155Z,1008.41
2019-02-28T02:14:39.133Z,1008.32
2019-02-28T02:15:39.130Z,1008.31
2019-02-28T02:16:39.123Z,1008.29
2019-02-28T02:17:39.112Z,1008.23
2019-02-28T02:18:40.219Z,1008.26
2019-02-28T02:19:39.080Z,1008.27
2019-02-28T02:20:39.074Z,1008.22
2019-02-28T02:21:39.054Z,1008.26
2019-02-28T02:22:40.751Z,1008.20
2019-02-28T02:23:40.032Z,1008.18
2019-02-28T02:24:39.027Z,1008.21
2019-02-28T02:25:39.009Z,1008.15
2019-02-28T02:26:39.013Z,1008.14
2019-02-28T02:27:39.008Z,1008.16
2019-02-28T02:28:38.981Z,1008.13
2019-02-28T02:29:38.966Z,1008.15
2019-02-28T02:30:38.954Z,1008.14
2019-02-28T02:31:38.961Z,1008.12
2019-02-28T02:32:38.983Z,1008.12
2019-02-28T02:33:38.922Z,1008.10
2019-02-28T02:34:38.918Z,1008.05
2019-02-28T02:35:42.309Z,1008.05
2019-02-28T02:36:38.888Z,1008.00
2019-02-28T02:37:38.888Z,1007.97
2019-02-28T02:38:41.494Z,1007.98
2019-02-28T02:39:38.865Z,1007.97
2019-02-28T02:40:38.864Z,1007.89
2019-02-28T02:41:38.844Z,1007.87
2019-02-28T02:42:38.838Z,1007.87
2019-02-28T02:43:38.853Z,1007.88
2019-02-28T02:44:38.809Z,1007.88
2019-02-28T02:45:43.379Z,1007.87
2019-02-28T02:46:38.795Z,1007.89
2019-02-28T02:47:38.829Z,1007.89
2019-02-28T02:48:42.340Z,1007.90
2019-02-28T02:49:38.747Z,1007.91
2019-02-28T02:50:38.750Z,1007.90
2019-02-28T02:51:38.723Z,1007.88
2019-02-28T02:52:38.723Z,1007.89
2019-02-28T02:53:41.901Z,1007.85
2019-02-28T02:54:38.708Z,1007.87
2019-02-28T02:55:38.677Z,1007.83
2019-02-28T02:56:41.897Z,1007.86
2019-02-28T02:57:38.669Z,1007.83
2019-02-28T02:58:38.648Z,1007.84
2019-02-28T02:59:39.445Z,1007.86
2019-02-28T03:00:38.624Z,1007.85
2019-02-28T03:01:38.609Z,1007.86
2019-02-28T03:02:38.618Z,1007.81
2019-02-28T03:03:42.861Z,1007.81
2019-02-28T03:04:39.575Z,1007.78
2019-02-28T03:05:38.565Z,1007.79
2019-02-28T03:06:38.571Z,1007.76
2019-02-28T03:07:38.559Z,1007.74
2019-02-28T03:08:38.534Z,1007.76
2019-02-28T03:09:43.423Z,1007.76
2019-02-28T03:10:39.509Z,1007.75
2019-02-28T03:11:38.497Z,1007.73
2019-02-28T03:12:38.523Z,1007.73
2019-02-28T03:13:43.765Z,1007.71
2019-02-28T03:14:39.463Z,1007.70
2019-02-28T03:15:38.455Z,1007.71
2019-02-28T03:16:38.444Z,1007.70
2019-02-28T03:17:38.464Z,1007.72
2019-02-28T03:18:38.432Z,1007.66
2019-02-28T03:19:38.414Z,1007.66
2019-02-28T03:20:41.117Z,1007.63
2019-02-28T03:21:38.388Z,1007.65
2019-02-28T03:22:38.377Z,1007.68
2019-02-28T03:23:40.424Z,1007.63
2019-02-28T03:24:38.364Z,1007.60
2019-02-28T03:25:38.351Z,1007.58
2019-02-28T03:26:41.834Z,1007.57
2019-02-28T03:27:38.335Z,1007.58
2019-02-28T03:28:38.320Z,1007.54
2019-02-28T03:29:43.382Z,1007.57
2019-02-28T03:30:39.288Z,1007.54
2019-02-28T03:31:38.277Z,1007.52
2019-02-28T03:32:42.134Z,1007.52
2019-02-28T03:33:38.296Z,1007.53
2019-02-28T03:34:38.245Z,1007.50
2019-02-28T03:35:42.981Z,1007.47
2019-02-28T03:36:39.226Z,1007.46
2019-02-28T03:37:38.208Z,1007.45
2019-02-28T03:38:38.213Z,1007.42
2019-02-28T03:39:38.209Z,1007.38
2019-02-28T03:40:45.718Z,1007.38
2019-02-28T03:41:45.176Z,1007.35
2019-02-28T03:42:38.171Z,1007.39
2019-02-28T03:43:42.441Z,1007.39
2019-02-28T03:44:39.129Z,1007.39
2019-02-28T03:45:38.122Z,1007.40
2019-02-28T03:46:38.108Z,1007.41
2019-02-28T03:47:38.101Z,1007.38
2019-02-28T03:48:38.096Z,1007.41
2019-02-28T03:49:38.075Z,1007.42
2019-02-28T03:50:38.083Z,1007.42
2019-02-28T03:51:38.057Z,1007.45
2019-02-28T03:52:42.077Z,1007.45
2019-02-28T03:53:39.059Z,1007.46
2019-02-28T03:54:38.020Z,1007.50
2019-02-28T03:55:40.816Z,1007.44
2019-02-28T03:56:38.013Z,1007.49
2019-02-28T03:57:37.989Z,1007.45
2019-02-28T03:58:42.775Z,1007.44
2019-02-28T03:59:38.971Z,1007.45
2019-02-28T04:00:37.964Z,1007.45
2019-02-28T04:01:44.576Z,1007.42
2019-02-28T04:02:38.946Z,1007.38
2019-02-28T04:03:37.949Z,1007.32
2019-02-28T04:04:37.910Z,1007.31
2019-02-28T04:05:37.899Z,1007.37
2019-02-28T04:06:40.830Z,1007.35
2019-02-28T04:07:37.872Z,1007.36
2019-02-28T04:08:37.874Z,1007.42
2019-02-28T04:09:43.809Z,1007.35
2019-02-28T04:10:38.842Z,1007.34
2019-02-28T04:11:37.834Z,1007.35
2019-02-28T04:12:45.022Z,1007.35
2019-02-28T04:13:38.831Z,1007.29
2019-02-28T04:14:37.796Z,1007.34
2019-02-28T04:15:37.784Z,1007.29
2019-02-28T04:16:37.778Z,1007.33
2019-02-28T04:17:37.767Z,1007.35
2019-02-28T04:18:43.905Z,1007.31
2019-02-28T04:19:38.739Z,1007.42
2019-02-28T04:20:37.991Z,1007.28
2019-02-28T04:21:37.717Z,1007.30
2019-02-28T04:22:37.706Z,1007.31
2019-02-28T04:23:37.733Z,1007.22
2019-02-28T04:24:37.749Z,1007.24
2019-02-28T04:25:37.680Z,1007.28
2019-02-28T04:26:37.720Z,1007.24
2019-02-28T04:27:40.240Z,1007.24
2019-02-28T04:28:37.656Z,1007.21
2019-02-28T04:29:37.633Z,1007.23
2019-02-28T04:30:42.574Z,1007.26
2019-02-28T04:31:38.604Z,1007.20
2019-02-28T04:32:37.597Z,1007.21
2019-02-28T04:33:39.182Z,1007.26
2019-02-28T04:34:37.579Z,1007.24
2019-02-28T04:35:37.572Z,1007.32
2019-02-28T04:36:37.581Z,1007.34
2019-02-28T04:37:44.651Z,1007.29
2019-02-28T04:38:38.538Z,1007.29
2019-02-28T04:39:37.520Z,1007.26
2019-02-28T04:40:37.525Z,1007.27
2019-02-28T04:41:37.495Z,1007.25
2019-02-28T04:42:37.489Z,1007.25
2019-02-28T04:43:37.505Z,1007.29
2019-02-28T04:44:37.460Z,1007.23
2019-02-28T04:45:37.449Z,1007.21
2019-02-28T04:46:37.444Z,1007.25
2019-02-28T04:47:40.436Z,1007.20
2019-02-28T04:48:37.427Z,1007.16
2019-02-28T04:49:37.434Z,1007.17
2019-02-28T04:50:37.394Z,1007.14
2019-02-28T04:51:40.216Z,1007.10
2019-02-28T04:52:37.376Z,1007.08
2019-02-28T04:53:37.359Z,1007.09
2019-02-28T04:54:37.371Z,1007.05
2019-02-28T04:55:37.980Z,1007.05
2019-02-28T04:56:37.331Z,1007.03
2019-02-28T04:57:37.318Z,1007.01
2019-02-28T04:58:37.305Z,1007.03
2019-02-28T04:59:37.325Z,1007.02
2019-02-28T05:00:38.071Z,1007.03
2019-02-28T05:01:37.274Z,1007.04
2019-02-28T05:02:37.261Z,1007.02
2019-02-28T05:03:37.259Z,1006.99
2019-02-28T05:04:37.258Z,1006.97
2019-02-28T05:05:37.228Z,1007.00
2019-02-28T05:06:37.213Z,1006.99
2019-02-28T05:07:37.204Z,1007.00
2019-02-28T05:08:38.886Z,1007.01
2019-02-28T05:09:37.197Z,1007.02
2019-02-28T05:10:37.170Z,1006.98
2019-02-28T05:11:37.167Z,1007.00
2019-02-28T05:12:39.739Z,1007.02
2019-02-28T05:13:37.138Z,1007.00
2019-02-28T05:14:37.136Z,1007.05
2019-02-28T05:15:38.683Z,1007.07
2019-02-28T05:16:37.107Z,1007.05
2019-02-28T05:17:37.092Z,1007.04
2019-02-28T05:18:37.086Z,1007.13
2019-02-28T05:19:37.088Z,1007.11
2019-02-28T05:20:37.060Z,1007.14
2019-02-28T05:21:37.050Z,1007.15
2019-02-28T05:22:37.050Z,1007.21
2019-02-28T05:23:37.025Z,1007.15
2019-02-28T05:24:39.472Z,1007.21
2019-02-28T05:25:38.002Z,1007.19
2019-02-28T05:26:36.999Z,1007.17
2019-02-28T05:27:36.987Z,1007.14
2019-02-28T05:28:40.276Z,1007.20
2019-02-28T05:29:36.995Z,1007.21
2019-02-28T05:30:36.957Z,1007.20
2019-02-28T05:31:36.937Z,1007.25
2019-02-28T05:32:37.005Z,1007.21
2019-02-28T05:33:38.299Z,1007.22
2019-02-28T05:34:36.923Z,1007.21
2019-02-28T05:35:36.909Z,1007.21
2019-02-28T05:36:37.899Z,1007.18
2019-02-28T05:37:36.912Z,1007.15
2019-02-28T05:38:36.858Z,1007.09
2019-02-28T05:39:36.857Z,1007.11
2019-02-28T05:40:40.608Z,1007.06
2019-02-28T05:41:36.827Z,1007.07
2019-02-28T05:42:36.823Z,1007.04
2019-02-28T05:43:36.809Z,1007.07
2019-02-28T05:44:37.416Z,1007.01
2019-02-28T05:45:36.803Z,1007.07
2019-02-28T05:46:36.773Z,1007.06
2019-02-28T05:47:45.849Z,1007.05
2019-02-28T05:48:38.796Z,1007.04
2019-02-28T05:49:36.748Z,1007.02
2019-02-28T05:50:36.724Z,1007.02
2019-02-28T05:51:36.714Z,1007.00
2019-02-28T05:52:36.708Z,1006.99
2019-02-28T05:53:36.692Z,1006.96
2019-02-28T05:54:36.691Z,1006.94
2019-02-28T05:55:36.724Z,1006.94
2019-02-28T05:56:36.660Z,1006.98
2019-02-28T05:57:39.393Z,1006.95
2019-02-28T05:58:37.634Z,1006.94
2019-02-28T05:59:36.638Z,1006.93
2019-02-28T06:00:37.021Z,1006.95
2019-02-28T06:01:36.601Z,1006.95
2019-02-28T06:02:36.591Z,1006.99
2019-02-28T06:03:36.583Z,1007.01
2019-02-28T06:04:37.191Z,1007.04
2019-02-28T06:05:36.570Z,1007.02
2019-02-28T06:06:36.553Z,1007.03
2019-02-28T06:07:36.551Z,1007.03
2019-02-28T06:08:39.145Z,1007.03
2019-02-28T06:09:36.526Z,1007.03
2019-02-28T06:10:36.518Z,1007.06
2019-02-28T06:11:36.490Z,1007.00
2019-02-28T06:12:36.481Z,1007.04
2019-02-28T06:13:37.135Z,1007.03
2019-02-28T06:14:36.511Z,1007.03
2019-02-28T06:15:37.209Z,1007.02
2019-02-28T06:16:36.437Z,1006.98
2019-02-28T06:17:36.429Z,1007.03
2019-02-28T06:18:36.412Z,1007.04
2019-02-28T06:19:36.404Z,1007.12
2019-02-28T06:20:36.402Z,1007.08
2019-02-28T06:21:36.395Z,1007.07
2019-02-28T06:22:36.401Z,1007.06
2019-02-28T06:23:36.364Z,1007.05
2019-02-28T06:24:36.343Z,1007.05
2019-02-28T06:25:36.346Z,1007.07
2019-02-28T06:26:36.328Z,1007.03
2019-02-28T06:27:41.514Z,1007.01
2019-02-28T06:28:37.300Z,1006.99
2019-02-28T06:29:37.509Z,1007.01
2019-02-28T06:30:36.292Z,1007.01
2019-02-28T06:31:36.293Z,1006.99
2019-02-28T06:32:36.255Z,1006.98
2019-02-28T06:33:36.248Z,1006.96
2019-02-28T06:34:36.237Z,1006.97
2019-02-28T06:35:36.241Z,1006.96
2019-02-28T06:36:36.212Z,1006.98
2019-02-28T06:37:38.291Z,1007.01
2019-02-28T06:38:36.194Z,1006.98
2019-02-28T06:39:37.539Z,1006.95
2019-02-28T06:40:36.184Z,1006.95
2019-02-28T06:41:36.155Z,1006.93
2019-02-28T06:42:36.144Z,1006.93
2019-02-28T06:43:36.135Z,1006.90
2019-02-28T06:44:36.128Z,1006.86
2019-02-28T06:45:37.568Z,1006.87
2019-02-28T06:46:36.101Z,1006.83
2019-02-28T06:47:36.091Z,1006.81
2019-02-28T06:48:36.079Z,1006.79
2019-02-28T06:49:40.887Z,1006.75
2019-02-28T06:50:37.070Z,1006.78
2019-02-28T06:51:36.046Z,1006.79
2019-02-28T06:52:36.036Z,1006.76
2019-02-28T06:53:36.340Z,1006.78
2019-02-28T06:54:36.035Z,1006.77
2019-02-28T06:55:36.013Z,1006.77
2019-02-28T06:56:35.989Z,1006.79
2019-02-28T06:57:35.986Z,1006.77
2019-02-28T06:58:35.969Z,1006.82
2019-02-28T06:59:36.198Z,1006.86
2019-02-28T07:00:35.962Z,1006.88
2019-02-28T07:01:35.944Z,1006.90
2019-02-28T07:02:35.922Z,1006.93
2019-02-28T07:03:38.809Z,1006.96
2019-02-28T07:04:35.898Z,1007.03
2019-02-28T07:05:35.899Z,1007.07
2019-02-28T07:06:36.622Z,1007.15
2019-02-28T07:07:35.885Z,1007.26
2019-02-28T07:08:35.875Z,1007.24
2019-02-28T07:09:36.457Z,1007.26
2019-02-28T07:10:35.843Z,1007.28
2019-02-28T07:11:35.820Z,1007.25
2019-02-28T07:12:35.809Z,1007.26
2019-02-28T07:13:39.034Z,1007.34
2019-02-28T07:14:35.793Z,1007.33
2019-02-28T07:15:35.788Z,1007.37
2019-02-28T07:16:37.801Z,1007.38
2019-02-28T07:17:35.766Z,1007.41
2019-02-28T07:18:35.745Z,1007.41
2019-02-28T07:19:35.739Z,1007.39
2019-02-28T07:20:36.114Z,1007.41
2019-02-28T07:21:35.713Z,1007.41
2019-02-28T07:22:35.714Z,1007.37
2019-02-28T07:23:35.686Z,1007.38
2019-02-28T07:24:37.443Z,1007.38
2019-02-28T07:25:35.675Z,1007.41
2019-02-28T07:26:35.651Z,1007.41
2019-02-28T07:27:35.642Z,1007.41
2019-02-28T07:28:37.490Z,1007.35
2019-02-28T07:29:35.621Z,1007.37
2019-02-28T07:30:35.636Z,1007.39
2019-02-28T07:31:35.614Z,1007.36
2019-02-28T07:32:35.585Z,1007.31
2019-02-28T07:33:35.575Z,1007.33
2019-02-28T07:34:35.566Z,1007.32
2019-02-28T07:35:36.871Z,1007.31
2019-02-28T07:36:35.558Z,1007.32
2019-02-28T07:37:35.529Z,1007.32
2019-02-28T07:38:35.528Z,1007.29
2019-02-28T07:39:36.520Z,1007.30
2019-02-28T07:40:35.520Z,1007.25
2019-02-28T07:41:35.498Z,1007.25
2019-02-28T07:42:37.542Z,1007.26
2019-02-28T07:43:35.464Z,1007.26
2019-02-28T07:44:37.949Z,1007.27
2019-02-28T07:45:35.440Z,1007.21
2019-02-28T07:46:35.444Z,1007.16
2019-02-28T07:47:35.417Z,1007.17
2019-02-28T07:48:35.418Z,1007.15
2019-02-28T07:49:36.710Z,1007.13
2019-02-28T07:50:43.496Z,1007.15
2019-02-28T07:51:42.400Z,1007.14
2019-02-28T07:52:42.380Z,1007.17
2019-02-28T07:53:42.380Z,1007.17
2019-02-28T07:54:42.352Z,1007.15
2019-02-28T07:55:35.334Z,1007.18
2019-02-28T07:56:35.334Z,1007.20
2019-02-28T07:57:35.307Z,1007.27
2019-02-28T07:58:35.295Z,1007.23
2019-02-28T07:59:40.884Z,1007.24
2019-02-28T08:00:36.277Z,1007.16
2019-02-28T08:01:35.273Z,1007.21
2019-02-28T08:02:35.657Z,1007.18
2019-02-28T08:03:35.239Z,1007.18
2019-02-28T08:04:35.227Z,1007.13
2019-02-28T08:05:35.222Z,1007.17
2019-02-28T08:06:36.341Z,1007.14
2019-02-28T08:07:35.193Z,1007.11
2019-02-28T08:08:35.185Z,1007.12
2019-02-28T08:09:36.729Z,1007.10
2019-02-28T08:10:36.159Z,1007.11
2019-02-28T08:11:35.164Z,1007.12
2019-02-28T08:12:35.137Z,1007.19
2019-02-28T08:13:37.930Z,1007.22
2019-02-28T08:14:35.115Z,1007.17
2019-02-28T08:15:35.105Z,1007.22
2019-02-28T08:16:35.133Z,1007.21
2019-02-28T08:17:35.413Z,1007.22
2019-02-28T08:18:35.077Z,1007.24
2019-02-28T08:19:35.071Z,1007.25
2019-02-28T08:20:35.066Z,1007.22
2019-02-28T08:21:35.053Z,1007.22
2019-02-28T08:22:35.033Z,1007.19
2019-02-28T08:23:35.023Z,1007.21
2019-02-28T08:24:35.856Z,1007.23
2019-02-28T08:25:35.002Z,1007.24
2019-02-28T08:26:35.082Z,1007.22
2019-02-28T08:27:34.991Z,1007.23
2019-02-28T08:28:36.708Z,1007.19
2019-02-28T08:29:34.949Z,1007.20
2019-02-28T08:30:34.939Z,1007.18
2019-02-28T08:31:34.927Z,1007.20
2019-02-28T08:32:34.928Z,1007.18
2019-02-28T08:33:34.909Z,1007.17
2019-02-28T08:34:34.894Z,1007.15
2019-02-28T08:35:35.917Z,1007.18
2019-02-28T08:36:34.870Z,1007.16
2019-02-28T08:37:34.874Z,1007.17
2019-02-28T08:38:34.848Z,1007.13
2019-02-28T08:39:34.852Z,1007.13
2019-02-28T08:40:34.829Z,1007.12
2019-02-28T08:41:34.813Z,1007.14
2019-02-28T08:42:38.483Z,1007.18
2019-02-28T08:43:34.793Z,1007.19
2019-02-28T08:44:34.786Z,1007.24
2019-02-28T08:45:34.777Z,1007.25
2019-02-28T08:46:34.761Z,1007.24
2019-02-28T08:47:34.759Z,1007.26
2019-02-28T08:48:34.966Z,1007.26
2019-02-28T08:49:34.727Z,1007.23
2019-02-28T08:50:34.720Z,1007.22
2019-02-28T08:51:34.705Z,1007.24
2019-02-28T08:52:37.658Z,1007.27
2019-02-28T08:53:35.683Z,1007.22
2019-02-28T08:54:34.668Z,1007.17
2019-02-28T08:55:34.709Z,1007.21
2019-02-28T08:56:34.651Z,1007.16
2019-02-28T08:57:34.648Z,1007.17
2019-02-28T08:58:37.663Z,1007.22
2019-02-28T08:59:34.613Z,1007.16
2019-02-28T09:00:34.603Z,1007.14
2019-02-28T09:01:40.095Z,1007.10
2019-02-28T09:02:35.591Z,1007.11
2019-02-28T09:03:34.569Z,1007.12
2019-02-28T09:04:41.020Z,1007.06
2019-02-28T09:05:35.545Z,1007.07
2019-02-28T09:06:34.547Z,1007.08
2019-02-28T09:07:34.537Z,1007.15
2019-02-28T09:08:34.512Z,1007.08
2019-02-28T09:09:35.278Z,1007.05
2019-02-28T09:10:34.492Z,1007.08
2019-02-28T09:11:34.486Z,1007.10
2019-02-28T09:12:34.490Z,1007.12
2019-02-28T09:13:34.462Z,1007.06
2019-02-28T09:14:34.467Z,1007.07
2019-02-28T09:15:34.442Z,1007.15
2019-02-28T09:16:36.682Z,1007.05
2019-02-28T09:17:35.425Z,1007.02
2019-02-28T09:18:34.403Z,1007.01
2019-02-28T09:19:35.975Z,1006.98
2019-02-28T09:20:34.378Z,1006.96
2019-02-28T09:21:34.367Z,1006.91
2019-02-28T09:22:34.393Z,1006.89
2019-02-28T09:23:37.237Z,1006.89
2019-02-28T09:24:34.335Z,1006.90
2019-02-28T09:25:34.343Z,1006.89
2019-02-28T09:26:34.314Z,1006.88
2019-02-28T09:27:35.294Z,1006.88
2019-02-28T09:28:34.300Z,1006.94
2019-02-28T09:29:34.279Z,1006.93
2019-02-28T09:30:34.300Z,1006.88
2019-02-28T09:31:38.679Z,1006.91
2019-02-28T09:32:34.245Z,1006.90
2019-02-28T09:33:34.244Z,1006.95
2019-02-28T09:34:34.224Z,1006.95
2019-02-28T09:35:34.213Z,1006.92
2019-02-28T09:36:34.204Z,1006.93
2019-02-28T09:37:34.192Z,1006.93
2019-02-28T09:38:34.207Z,1006.95
2019-02-28T09:39:34.169Z,1006.93
2019-02-28T09:40:34.155Z,1006.95
2019-02-28T09:41:36.420Z,1006.96
2019-02-28T09:42:35.133Z,1006.98
2019-02-28T09:43:34.136Z,1006.99
2019-02-28T09:44:34.112Z,1006.98
2019-02-28T09:45:34.116Z,1006.95
2019-02-28T09:46:34.090Z,1006.95
2019-02-28T09:47:34.077Z,1006.90
2019-02-28T09:48:37.113Z,1006.94
2019-02-28T09:49:34.055Z,1006.91
2019-02-28T09:50:34.046Z,1006.88
2019-02-28T09:51:34.035Z,1006.85
2019-02-28T09:52:34.023Z,1006.86
2019-02-28T09:53:34.028Z,1006.81
2019-02-28T09:54:34.033Z,1006.80
2019-02-28T09:55:35.302Z,1006.82
2019-02-28T09:56:33.978Z,1006.80
2019-02-28T09:57:33.967Z,1006.84
2019-02-28T09:58:33.967Z,1006.85
2019-02-28T09:59:37.342Z,1006.83
2019-02-28T10:00:33.938Z,1006.85
2019-02-28T10:01:33.934Z,1006.84
2019-02-28T10:02:33.914Z,1006.85
2019-02-28T10:03:34.669Z,1006.85
2019-02-28T10:04:33.888Z,1006.80
2019-02-28T10:05:33.879Z,1006.79
2019-02-28T10:06:33.867Z,1006.80
2019-02-28T10:07:33.858Z,1006.76
2019-02-28T10:08:36.921Z,1006.74
2019-02-28T10:09:33.833Z,1006.74
2019-02-28T10:10:33.835Z,1006.75
2019-02-28T10:11:33.837Z,1006.79
2019-02-28T10:12:33.801Z,1006.79
2019-02-28T10:13:33.815Z,1006.77
2019-02-28T10:14:34.612Z,1006.79
2019-02-28T10:15:33.767Z,1006.78
2019-02-28T10:16:33.754Z,1006.85
2019-02-28T10:17:33.743Z,1006.80
2019-02-28T10:18:35.480Z,1006.79
2019-02-28T10:19:42.806Z,1006.82
2019-02-28T10:20:34.713Z,1006.87
2019-02-28T10:21:36.465Z,1006.83
2019-02-28T10:22:34.686Z,1006.79
2019-02-28T10:23:33.707Z,1006.80
2019-02-28T10:24:33.703Z,1006.81
2019-02-28T10:25:33.659Z,1006.79
2019-02-28T10:26:33.644Z,1006.76
2019-02-28T10:27:33.633Z,1006.75
2019-02-28T10:28:33.643Z,1006.73
2019-02-28T10:29:33.669Z,1006.71
2019-02-28T10:30:33.605Z,1006.70
2019-02-28T10:31:37.934Z,1006.75
2019-02-28T10:32:33.578Z,1006.71
2019-02-28T10:33:33.580Z,1006.70
2019-02-28T10:34:35.361Z,1006.72
2019-02-28T10:35:36.615Z,1006.69
2019-02-28T10:36:33.536Z,1006.68
2019-02-28T10:37:33.523Z,1006.65
2019-02-28T10:38:33.895Z,1006.63
2019-02-28T10:39:33.497Z,1006.64
2019-02-28T10:40:33.488Z,1006.62
2019-02-28T10:41:33.479Z,1006.65
2019-02-28T10:42:33.464Z,1006.60
2019-02-28T10:43:33.476Z,1006.60
2019-02-28T10:44:33.443Z,1006.62
2019-02-28T10:45:33.430Z,1006.65
2019-02-28T10:46:33.434Z,1006.69
2019-02-28T10:47:33.423Z,1006.69
2019-02-28T10:48:35.349Z,1006.62
2019-02-28T10:49:33.424Z,1006.62
2019-02-28T10:50:33.643Z,1006.63
2019-02-28T10:51:33.363Z,1006.56
2019-02-28T10:52:33.400Z,1006.60
2019-02-28T10:53:36.266Z,1006.59
2019-02-28T10:54:34.342Z,1006.57
2019-02-28T10:55:33.321Z,1006.58
2019-02-28T10:56:33.332Z,1006.52
2019-02-28T10:57:33.312Z,1006.53
2019-02-28T10:58:33.287Z,1006.57
2019-02-28T10:59:33.304Z,1006.59
2019-02-28T11:00:33.642Z,1006.60
2019-02-28T11:01:33.263Z,1006.62
2019-02-28T11:02:33.248Z,1006.59
2019-02-28T11:03:33.316Z,1006.59
2019-02-28T11:04:33.232Z,1006.57
2019-02-28T11:05:33.217Z,1006.55
2019-02-28T11:06:33.199Z,1006.58
2019-02-28T11:07:34.216Z,1006.57
2019-02-28T11:08:33.174Z,1006.52
2019-02-28T11:09:33.176Z,1006.52
2019-02-28T11:10:35.487Z,1006.47
2019-02-28T11:11:33.142Z,1006.51
2019-02-28T11:12:33.131Z,1006.42
2019-02-28T11:13:33.120Z,1006.44
2019-02-28T11:14:35.525Z,1006.42
2019-02-28T11:15:34.101Z,1006.45
2019-02-28T11:16:33.088Z,1006.44
2019-02-28T11:17:34.225Z,1006.46
2019-02-28T11:18:33.066Z,1006.42
2019-02-28T11:19:33.067Z,1006.40
2019-02-28T11:20:33.322Z,1006.36
2019-02-28T11:21:33.029Z,1006.38
2019-02-28T11:22:33.018Z,1006.34
2019-02-28T11:23:33.008Z,1006.36
2019-02-28T11:24:33.010Z,1006.37
2019-02-28T11:25:35.557Z,1006.35
2019-02-28T11:26:32.978Z,1006.41
2019-02-28T11:27:32.965Z,1006.39
2019-02-28T11:28:32.953Z,1006.43
2019-02-28T11:29:35.104Z,1006.42
2019-02-28T11:30:32.929Z,1006.43
2019-02-28T11:31:32.918Z,1006.43
2019-02-28T11:32:32.909Z,1006.44
2019-02-28T11:33:32.914Z,1006.39
2019-02-28T11:34:32.901Z,1006.48
2019-02-28T11:35:32.875Z,1006.49
2019-02-28T11:36:34.121Z,1006.54
2019-02-28T11:37:32.855Z,1006.60
2019-02-28T11:38:32.841Z,1006.60
2019-02-28T11:39:33.701Z,1006.63
2019-02-28T11:40:32.822Z,1006.62
2019-02-28T11:41:32.813Z,1006.61
2019-02-28T11:42:32.797Z,1006.62
2019-02-28T11:43:37.510Z,1006.58
2019-02-28T11:44:33.789Z,1006.56
2019-02-28T11:45:32.771Z,1006.55
2019-02-28T11:46:35.743Z,1006.50
2019-02-28T11:47:32.745Z,1006.48
2019-02-28T11:48:32.732Z,1006.48
2019-02-28T11:49:32.733Z,1006.41
2019-02-28T11:50:32.730Z,1006.40
2019-02-28T11:51:32.706Z,1006.41
2019-02-28T11:52:32.685Z,1006.37
2019-02-28T11:53:40.579Z,1006.32
2019-02-28T11:54:39.692Z,1006.35
2019-02-28T11:55:32.653Z,1006.37
2019-02-28T11:56:32.641Z,1006.36
2019-02-28T11:57:32.629Z,1006.38
2019-02-28T11:58:32.619Z,1006.33
2019-02-28T11:59:32.622Z,1006.40
2019-02-28T12:00:35.655Z,1006.41
2019-02-28T12:01:32.585Z,1006.33
2019-02-28T12:02:32.574Z,1006.42
2019-02-28T12:03:35.504Z,1006.46
2019-02-28T12:04:32.565Z,1006.43
2019-02-28T12:05:32.540Z,1006.48